sensor_id;sensor_type;location;lat;lon;timestamp;P1;durP1;ratioP1;P2;durP2;ratioP2
4835;SDS011;66719;51.226;6.902;2023-11-19T00:01:33;8.20;;;3.60;;
4835;SDS011;66719;51.226;6.902;2023-11-19T00:04:00;10.00;;;3.60;;
4835;SDS011;66719;51.226;6.902;2023-11-19T00:06:27;8.40;;;3.10;;
4835;SDS011;66719;51.226;6.902;2023-11-19T00:08:54;8.87;;;3.53;;
4835;SDS011;66719;51.226;6.902;2023-11-19T00:11:20;7.10;;;3.03;;
4835;SDS011;66719;51.226;6.902;2023-11-19T00:13:47;8.50;;;3.27;;
4835;SDS011;66719;51.226;6.902;2023-11-19T00:16:14;7.90;;;3.17;;
4835;SDS011;66719;51.226;6.902;2023-11-19T00:18:42;7.50;;;3.30;;
4835;SDS011;66719;51.226;6.902;2023-11-19T00:21:09;9.77;;;3.30;;
4835;SDS011;66719;51.226;6.902;2023-11-19T00:23:36;11.67;;;3.40;;
4835;SDS011;66719;51.226;6.902;2023-11-19T00:26:03;9.63;;;3.30;;
4835;SDS011;66719;51.226;6.902;2023-11-19T00:28:32;9.17;;;3.23;;
4835;SDS011;66719;51.226;6.902;2023-11-19T00:31:00;8.03;;;3.23;;
4835;SDS011;66719;51.226;6.902;2023-11-19T00:33:26;8.20;;;3.40;;
4835;SDS011;66719;51.226;6.902;2023-11-19T00:35:53;9.80;;;3.50;;
4835;SDS011;66719;51.226;6.902;2023-11-19T00:38:20;8.30;;;3.20;;
4835;SDS011;66719;51.226;6.902;2023-11-19T00:40:46;9.57;;;3.30;;
4835;SDS011;66719;51.226;6.902;2023-11-19T00:43:13;8.37;;;3.40;;
4835;SDS011;66719;51.226;6.902;2023-11-19T00:45:40;7.47;;;2.97;;
4835;SDS011;66719;51.226;6.902;2023-11-19T00:48:06;7.30;;;3.40;;
4835;SDS011;66719;51.226;6.902;2023-11-19T00:50:33;9.10;;;3.23;;
4835;SDS011;66719;51.226;6.902;2023-11-19T00:53:03;10.00;;;3.77;;
4835;SDS011;66719;51.226;6.902;2023-11-19T00:55:30;9.20;;;3.50;;
4835;SDS011;66719;51.226;6.902;2023-11-19T00:57:57;7.97;;;3.37;;
4835;SDS011;66719;51.226;6.902;2023-11-19T01:00:23;7.90;;;3.60;;
4835;SDS011;66719;51.226;6.902;2023-11-19T01:02:52;17.80;;;9.27;;
4835;SDS011;66719;51.226;6.902;2023-11-19T01:05:20;16.90;;;8.17;;
4835;SDS011;66719;51.226;6.902;2023-11-19T01:07:50;18.63;;;9.77;;
4835;SDS011;66719;51.226;6.902;2023-11-19T01:10:18;9.00;;;4.60;;
4835;SDS011;66719;51.226;6.902;2023-11-19T01:12:45;10.23;;;4.17;;
4835;SDS011;66719;51.226;6.902;2023-11-19T01:15:12;8.40;;;3.10;;
4835;SDS011;66719;51.226;6.902;2023-11-19T01:17:39;7.93;;;3.60;;
4835;SDS011;66719;51.226;6.902;2023-11-19T01:20:18;8.83;;;3.30;;
4835;SDS011;66719;51.226;6.902;2023-11-19T01:22:46;7.60;;;3.30;;
4835;SDS011;66719;51.226;6.902;2023-11-19T01:25:15;8.27;;;3.23;;
4835;SDS011;66719;51.226;6.902;2023-11-19T01:27:41;9.87;;;3.50;;
4835;SDS011;66719;51.226;6.902;2023-11-19T01:30:08;8.80;;;3.50;;
4835;SDS011;66719;51.226;6.902;2023-11-19T01:32:39;8.73;;;3.57;;
4835;SDS011;66719;51.226;6.902;2023-11-19T01:35:07;8.60;;;3.77;;
4835;SDS011;66719;51.226;6.902;2023-11-19T01:37:37;8.43;;;3.03;;
4835;SDS011;66719;51.226;6.902;2023-11-19T01:40:04;7.13;;;3.00;;
4835;SDS011;66719;51.226;6.902;2023-11-19T01:42:38;8.50;;;3.10;;
4835;SDS011;66719;51.226;6.902;2023-11-19T01:45:06;8.33;;;2.83;;
4835;SDS011;66719;51.226;6.902;2023-11-19T01:47:34;9.13;;;2.63;;
4835;SDS011;66719;51.226;6.902;2023-11-19T01:50:03;8.53;;;2.50;;
4835;SDS011;66719;51.226;6.902;2023-11-19T01:52:35;10.50;;;2.60;;
4835;SDS011;66719;51.226;6.902;2023-11-19T01:55:06;9.60;;;1.60;;
4835;SDS011;66719;51.226;6.902;2023-11-19T01:57:35;6.03;;;1.50;;
4835;SDS011;66719;51.226;6.902;2023-11-19T02:00:04;7.23;;;1.77;;
4835;SDS011;66719;51.226;6.902;2023-11-19T02:02:32;10.10;;;1.60;;
4835;SDS011;66719;51.226;6.902;2023-11-19T02:05:00;9.30;;;1.50;;
4835;SDS011;66719;51.226;6.902;2023-11-19T02:07:26;11.87;;;1.60;;
4835;SDS011;66719;51.226;6.902;2023-11-19T02:09:53;6.80;;;1.57;;
4835;SDS011;66719;51.226;6.902;2023-11-19T02:12:19;7.50;;;1.50;;
4835;SDS011;66719;51.226;6.902;2023-11-19T02:14:46;8.77;;;1.80;;
4835;SDS011;66719;51.226;6.902;2023-11-19T02:17:29;7.70;;;1.77;;
4835;SDS011;66719;51.226;6.902;2023-11-19T02:20:00;7.47;;;1.77;;
4835;SDS011;66719;51.226;6.902;2023-11-19T02:22:27;13.17;;;1.93;;
4835;SDS011;66719;51.226;6.902;2023-11-19T02:24:55;11.77;;;1.90;;
4835;SDS011;66719;51.226;6.902;2023-11-19T02:30:16;9.47;;;2.03;;
4835;SDS011;66719;51.226;6.902;2023-11-19T02:32:42;11.43;;;1.80;;
4835;SDS011;66719;51.226;6.902;2023-11-19T02:35:09;11.30;;;1.90;;
4835;SDS011;66719;51.226;6.902;2023-11-19T02:37:35;17.00;;;2.50;;
4835;SDS011;66719;51.226;6.902;2023-11-19T02:40:02;16.37;;;1.97;;
4835;SDS011;66719;51.226;6.902;2023-11-19T02:42:30;18.10;;;2.33;;
4835;SDS011;66719;51.226;6.902;2023-11-19T02:44:57;9.80;;;2.80;;
4835;SDS011;66719;51.226;6.902;2023-11-19T02:47:24;16.67;;;2.70;;
4835;SDS011;66719;51.226;6.902;2023-11-19T02:49:51;10.67;;;2.43;;
4835;SDS011;66719;51.226;6.902;2023-11-19T02:52:19;12.33;;;2.63;;
4835;SDS011;66719;51.226;6.902;2023-11-19T02:54:46;22.57;;;3.00;;
4835;SDS011;66719;51.226;6.902;2023-11-19T02:57:12;17.90;;;2.60;;
4835;SDS011;66719;51.226;6.902;2023-11-19T02:59:48;14.83;;;2.63;;
4835;SDS011;66719;51.226;6.902;2023-11-19T03:02:15;16.03;;;2.70;;
4835;SDS011;66719;51.226;6.902;2023-11-19T03:04:42;16.13;;;2.73;;
4835;SDS011;66719;51.226;6.902;2023-11-19T03:07:10;15.93;;;2.37;;
4835;SDS011;66719;51.226;6.902;2023-11-19T03:09:37;16.60;;;3.20;;
4835;SDS011;66719;51.226;6.902;2023-11-19T03:12:06;22.30;;;3.43;;
4835;SDS011;66719;51.226;6.902;2023-11-19T03:14:33;22.67;;;3.60;;
4835;SDS011;66719;51.226;6.902;2023-11-19T03:17:00;25.30;;;3.23;;
4835;SDS011;66719;51.226;6.902;2023-11-19T03:19:27;31.80;;;3.60;;
4835;SDS011;66719;51.226;6.902;2023-11-19T03:21:54;20.83;;;2.90;;
4835;SDS011;66719;51.226;6.902;2023-11-19T03:24:20;24.83;;;3.70;;
4835;SDS011;66719;51.226;6.902;2023-11-19T03:26:50;18.47;;;3.40;;
4835;SDS011;66719;51.226;6.902;2023-11-19T03:29:16;21.23;;;3.33;;
4835;SDS011;66719;51.226;6.902;2023-11-19T03:31:43;28.07;;;4.13;;
4835;SDS011;66719;51.226;6.902;2023-11-19T03:34:11;24.40;;;2.97;;
4835;SDS011;66719;51.226;6.902;2023-11-19T03:36:37;23.33;;;3.30;;
4835;SDS011;66719;51.226;6.902;2023-11-19T03:39:04;26.17;;;3.90;;
4835;SDS011;66719;51.226;6.902;2023-11-19T03:41:30;21.97;;;3.60;;
4835;SDS011;66719;51.226;6.902;2023-11-19T03:44:07;30.10;;;3.50;;
4835;SDS011;66719;51.226;6.902;2023-11-19T03:46:34;22.87;;;4.03;;
4835;SDS011;66719;51.226;6.902;2023-11-19T03:49:01;18.80;;;2.90;;
4835;SDS011;66719;51.226;6.902;2023-11-19T03:51:28;30.77;;;3.80;;
4835;SDS011;66719;51.226;6.902;2023-11-19T03:53:55;26.10;;;3.70;;
4835;SDS011;66719;51.226;6.902;2023-11-19T03:56:21;24.17;;;3.43;;
4835;SDS011;66719;51.226;6.902;2023-11-19T03:58:48;24.60;;;3.70;;
4835;SDS011;66719;51.226;6.902;2023-11-19T04:01:14;19.60;;;3.63;;
4835;SDS011;66719;51.226;6.902;2023-11-19T04:03:41;21.27;;;3.90;;
4835;SDS011;66719;51.226;6.902;2023-11-19T04:06:11;19.57;;;3.43;;
4835;SDS011;66719;51.226;6.902;2023-11-19T04:08:37;19.27;;;3.67;;
4835;SDS011;66719;51.226;6.902;2023-11-19T04:11:04;35.40;;;3.93;;
4835;SDS011;66719;51.226;6.902;2023-11-19T04:13:31;26.57;;;4.30;;
4835;SDS011;66719;51.226;6.902;2023-11-19T04:15:58;29.83;;;4.00;;
4835;SDS011;66719;51.226;6.902;2023-11-19T04:18:24;29.37;;;3.73;;
4835;SDS011;66719;51.226;6.902;2023-11-19T04:20:51;27.23;;;4.20;;
4835;SDS011;66719;51.226;6.902;2023-11-19T04:23:17;25.13;;;5.20;;
4835;SDS011;66719;51.226;6.902;2023-11-19T04:25:44;32.07;;;5.17;;
4835;SDS011;66719;51.226;6.902;2023-11-19T04:28:10;33.73;;;4.30;;
4835;SDS011;66719;51.226;6.902;2023-11-19T04:30:37;31.17;;;4.23;;
4835;SDS011;66719;51.226;6.902;2023-11-19T04:33:04;26.87;;;4.40;;
4835;SDS011;66719;51.226;6.902;2023-11-19T04:35:30;31.70;;;4.67;;
4835;SDS011;66719;51.226;6.902;2023-11-19T04:37:57;29.90;;;4.80;;
4835;SDS011;66719;51.226;6.902;2023-11-19T04:40:24;26.97;;;5.07;;
4835;SDS011;66719;51.226;6.902;2023-11-19T04:42:51;23.87;;;4.10;;
4835;SDS011;66719;51.226;6.902;2023-11-19T04:45:17;38.67;;;5.10;;
4835;SDS011;66719;51.226;6.902;2023-11-19T04:47:44;32.63;;;4.23;;
4835;SDS011;66719;51.226;6.902;2023-11-19T04:50:10;30.60;;;4.80;;
4835;SDS011;66719;51.226;6.902;2023-11-19T04:52:38;31.17;;;5.13;;
4835;SDS011;66719;51.226;6.902;2023-11-19T04:55:06;25.93;;;4.57;;
4835;SDS011;66719;51.226;6.902;2023-11-19T04:57:33;23.73;;;4.57;;
4835;SDS011;66719;51.226;6.902;2023-11-19T04:59:59;21.30;;;4.17;;
4835;SDS011;66719;51.226;6.902;2023-11-19T05:02:26;30.63;;;4.70;;
4835;SDS011;66719;51.226;6.902;2023-11-19T05:04:53;26.10;;;3.87;;
4835;SDS011;66719;51.226;6.902;2023-11-19T05:07:20;30.90;;;4.37;;
4835;SDS011;66719;51.226;6.902;2023-11-19T05:09:46;26.83;;;4.20;;
4835;SDS011;66719;51.226;6.902;2023-11-19T05:12:13;28.33;;;4.80;;
4835;SDS011;66719;51.226;6.902;2023-11-19T05:14:39;25.87;;;5.60;;
4835;SDS011;66719;51.226;6.902;2023-11-19T05:17:06;26.50;;;4.60;;
4835;SDS011;66719;51.226;6.902;2023-11-19T05:19:34;24.87;;;4.40;;
4835;SDS011;66719;51.226;6.902;2023-11-19T05:22:01;26.27;;;4.50;;
4835;SDS011;66719;51.226;6.902;2023-11-19T05:24:27;37.27;;;5.23;;
4835;SDS011;66719;51.226;6.902;2023-11-19T05:26:54;22.60;;;4.17;;
4835;SDS011;66719;51.226;6.902;2023-11-19T05:29:20;31.53;;;4.00;;
4835;SDS011;66719;51.226;6.902;2023-11-19T05:31:47;32.17;;;5.73;;
4835;SDS011;66719;51.226;6.902;2023-11-19T05:34:14;24.03;;;4.47;;
4835;SDS011;66719;51.226;6.902;2023-11-19T05:36:41;25.53;;;4.27;;
4835;SDS011;66719;51.226;6.902;2023-11-19T05:39:08;23.57;;;4.63;;
4835;SDS011;66719;51.226;6.902;2023-11-19T05:41:34;25.50;;;4.27;;
4835;SDS011;66719;51.226;6.902;2023-11-19T05:44:01;24.23;;;4.20;;
4835;SDS011;66719;51.226;6.902;2023-11-19T05:46:28;23.37;;;4.27;;
4835;SDS011;66719;51.226;6.902;2023-11-19T05:48:55;23.23;;;4.03;;
4835;SDS011;66719;51.226;6.902;2023-11-19T05:51:21;33.00;;;4.60;;
4835;SDS011;66719;51.226;6.902;2023-11-19T05:53:50;29.33;;;4.90;;
4835;SDS011;66719;51.226;6.902;2023-11-19T05:56:16;25.00;;;5.00;;
4835;SDS011;66719;51.226;6.902;2023-11-19T05:58:47;20.93;;;3.90;;
4835;SDS011;66719;51.226;6.902;2023-11-19T06:01:15;27.40;;;5.00;;
4835;SDS011;66719;51.226;6.902;2023-11-19T06:03:42;31.97;;;4.40;;
4835;SDS011;66719;51.226;6.902;2023-11-19T06:06:09;30.07;;;4.80;;
4835;SDS011;66719;51.226;6.902;2023-11-19T06:08:36;21.77;;;4.23;;
4835;SDS011;66719;51.226;6.902;2023-11-19T06:11:03;26.03;;;4.50;;
4835;SDS011;66719;51.226;6.902;2023-11-19T06:13:30;22.87;;;3.63;;
4835;SDS011;66719;51.226;6.902;2023-11-19T06:15:57;25.87;;;4.90;;
4835;SDS011;66719;51.226;6.902;2023-11-19T06:18:24;27.10;;;4.20;;
4835;SDS011;66719;51.226;6.902;2023-11-19T06:20:51;19.83;;;4.97;;
4835;SDS011;66719;51.226;6.902;2023-11-19T06:23:18;23.37;;;4.50;;
4835;SDS011;66719;51.226;6.902;2023-11-19T06:25:45;29.63;;;4.63;;
4835;SDS011;66719;51.226;6.902;2023-11-19T06:28:12;34.03;;;5.07;;
4835;SDS011;66719;51.226;6.902;2023-11-19T06:30:39;28.37;;;3.80;;
4835;SDS011;66719;51.226;6.902;2023-11-19T06:33:05;22.10;;;5.00;;
4835;SDS011;66719;51.226;6.902;2023-11-19T06:35:32;37.53;;;6.57;;
4835;SDS011;66719;51.226;6.902;2023-11-19T06:38:03;25.93;;;4.40;;
4835;SDS011;66719;51.226;6.902;2023-11-19T06:40:33;27.50;;;5.27;;
4835;SDS011;66719;51.226;6.902;2023-11-19T06:43:01;33.87;;;5.20;;
4835;SDS011;66719;51.226;6.902;2023-11-19T06:45:30;32.57;;;4.70;;
4835;SDS011;66719;51.226;6.902;2023-11-19T06:47:56;33.93;;;4.33;;
4835;SDS011;66719;51.226;6.902;2023-11-19T06:50:23;27.37;;;5.90;;
4835;SDS011;66719;51.226;6.902;2023-11-19T06:52:50;26.63;;;4.47;;
4835;SDS011;66719;51.226;6.902;2023-11-19T06:55:16;29.10;;;4.30;;
4835;SDS011;66719;51.226;6.902;2023-11-19T06:57:43;28.90;;;6.60;;
4835;SDS011;66719;51.226;6.902;2023-11-19T07:00:09;25.80;;;4.60;;
4835;SDS011;66719;51.226;6.902;2023-11-19T07:02:37;31.27;;;5.00;;
4835;SDS011;66719;51.226;6.902;2023-11-19T07:05:04;30.17;;;5.07;;
4835;SDS011;66719;51.226;6.902;2023-11-19T07:07:32;30.60;;;5.30;;
4835;SDS011;66719;51.226;6.902;2023-11-19T07:10:02;25.30;;;4.57;;
4835;SDS011;66719;51.226;6.902;2023-11-19T07:12:30;24.20;;;4.77;;
4835;SDS011;66719;51.226;6.902;2023-11-19T07:14:57;31.37;;;5.67;;
4835;SDS011;66719;51.226;6.902;2023-11-19T07:17:24;26.07;;;5.10;;
4835;SDS011;66719;51.226;6.902;2023-11-19T07:19:50;34.33;;;5.47;;
4835;SDS011;66719;51.226;6.902;2023-11-19T07:22:17;40.07;;;6.10;;
4835;SDS011;66719;51.226;6.902;2023-11-19T07:24:44;26.00;;;4.00;;
4835;SDS011;66719;51.226;6.902;2023-11-19T07:27:10;37.13;;;5.00;;
4835;SDS011;66719;51.226;6.902;2023-11-19T07:29:37;26.30;;;4.67;;
4835;SDS011;66719;51.226;6.902;2023-11-19T07:32:04;30.87;;;4.90;;
4835;SDS011;66719;51.226;6.902;2023-11-19T07:34:31;28.70;;;5.80;;
4835;SDS011;66719;51.226;6.902;2023-11-19T07:36:58;26.87;;;4.90;;
4835;SDS011;66719;51.226;6.902;2023-11-19T07:39:28;35.30;;;6.37;;
4835;SDS011;66719;51.226;6.902;2023-11-19T07:41:55;31.93;;;5.40;;
4835;SDS011;66719;51.226;6.902;2023-11-19T07:44:22;27.70;;;5.00;;
4835;SDS011;66719;51.226;6.902;2023-11-19T07:46:49;26.40;;;6.07;;
4835;SDS011;66719;51.226;6.902;2023-11-19T07:49:16;37.40;;;5.77;;
4835;SDS011;66719;51.226;6.902;2023-11-19T07:51:42;29.90;;;5.03;;
4835;SDS011;66719;51.226;6.902;2023-11-19T07:54:09;30.03;;;5.40;;
4835;SDS011;66719;51.226;6.902;2023-11-19T07:56:35;33.97;;;5.37;;
4835;SDS011;66719;51.226;6.902;2023-11-19T07:59:02;49.00;;;5.73;;
4835;SDS011;66719;51.226;6.902;2023-11-19T08:01:29;36.33;;;6.40;;
4835;SDS011;66719;51.226;6.902;2023-11-19T08:03:55;36.03;;;5.67;;
4835;SDS011;66719;51.226;6.902;2023-11-19T08:06:25;32.47;;;5.30;;
4835;SDS011;66719;51.226;6.902;2023-11-19T08:08:52;34.63;;;5.90;;
4835;SDS011;66719;51.226;6.902;2023-11-19T08:11:19;28.90;;;5.50;;
4835;SDS011;66719;51.226;6.902;2023-11-19T08:13:48;30.10;;;4.90;;
4835;SDS011;66719;51.226;6.902;2023-11-19T08:16:15;35.37;;;5.40;;
4835;SDS011;66719;51.226;6.902;2023-11-19T08:18:45;40.63;;;5.90;;
4835;SDS011;66719;51.226;6.902;2023-11-19T08:21:12;34.23;;;6.20;;
4835;SDS011;66719;51.226;6.902;2023-11-19T08:23:38;38.70;;;6.80;;
4835;SDS011;66719;51.226;6.902;2023-11-19T08:26:05;35.40;;;6.40;;
4835;SDS011;66719;51.226;6.902;2023-11-19T08:28:32;35.13;;;4.67;;
4835;SDS011;66719;51.226;6.902;2023-11-19T08:31:01;30.27;;;4.80;;
4835;SDS011;66719;51.226;6.902;2023-11-19T08:33:30;29.37;;;5.47;;
4835;SDS011;66719;51.226;6.902;2023-11-19T08:35:57;32.87;;;5.63;;
4835;SDS011;66719;51.226;6.902;2023-11-19T08:38:24;27.47;;;4.97;;
4835;SDS011;66719;51.226;6.902;2023-11-19T08:40:54;33.20;;;5.80;;
4835;SDS011;66719;51.226;6.902;2023-11-19T08:43:26;32.70;;;5.77;;
4835;SDS011;66719;51.226;6.902;2023-11-19T08:45:53;26.50;;;5.63;;
4835;SDS011;66719;51.226;6.902;2023-11-19T08:48:19;35.73;;;5.63;;
4835;SDS011;66719;51.226;6.902;2023-11-19T08:50:46;36.10;;;6.77;;
4835;SDS011;66719;51.226;6.902;2023-11-19T08:53:13;33.80;;;7.40;;
4835;SDS011;66719;51.226;6.902;2023-11-19T08:55:39;27.33;;;6.83;;
4835;SDS011;66719;51.226;6.902;2023-11-19T08:58:06;32.73;;;5.30;;
4835;SDS011;66719;51.226;6.902;2023-11-19T09:00:33;31.97;;;5.67;;
4835;SDS011;66719;51.226;6.902;2023-11-19T09:02:59;30.57;;;5.77;;
4835;SDS011;66719;51.226;6.902;2023-11-19T09:05:26;44.07;;;6.13;;
4835;SDS011;66719;51.226;6.902;2023-11-19T09:07:53;31.50;;;5.10;;
4835;SDS011;66719;51.226;6.902;2023-11-19T09:10:19;33.57;;;6.00;;
4835;SDS011;66719;51.226;6.902;2023-11-19T09:12:46;27.33;;;4.90;;
4835;SDS011;66719;51.226;6.902;2023-11-19T09:15:12;32.40;;;5.43;;
4835;SDS011;66719;51.226;6.902;2023-11-19T09:17:39;34.07;;;6.60;;
4835;SDS011;66719;51.226;6.902;2023-11-19T09:20:07;37.63;;;6.60;;
4835;SDS011;66719;51.226;6.902;2023-11-19T09:22:34;39.70;;;6.30;;
4835;SDS011;66719;51.226;6.902;2023-11-19T09:25:01;41.73;;;5.70;;
4835;SDS011;66719;51.226;6.902;2023-11-19T09:27:28;30.80;;;5.50;;
4835;SDS011;66719;51.226;6.902;2023-11-19T09:29:54;35.20;;;7.97;;
4835;SDS011;66719;51.226;6.902;2023-11-19T09:32:24;34.20;;;5.13;;
4835;SDS011;66719;51.226;6.902;2023-11-19T09:34:51;38.17;;;6.20;;
4835;SDS011;66719;51.226;6.902;2023-11-19T09:37:18;35.03;;;5.30;;
4835;SDS011;66719;51.226;6.902;2023-11-19T09:39:47;38.87;;;6.50;;
4835;SDS011;66719;51.226;6.902;2023-11-19T09:42:15;32.73;;;6.30;;
4835;SDS011;66719;51.226;6.902;2023-11-19T09:44:42;41.60;;;6.33;;
4835;SDS011;66719;51.226;6.902;2023-11-19T09:47:09;38.50;;;6.20;;
4835;SDS011;66719;51.226;6.902;2023-11-19T09:49:38;40.17;;;6.30;;
4835;SDS011;66719;51.226;6.902;2023-11-19T09:52:05;36.60;;;6.10;;
4835;SDS011;66719;51.226;6.902;2023-11-19T09:54:32;31.93;;;5.47;;
4835;SDS011;66719;51.226;6.902;2023-11-19T09:56:59;35.37;;;5.57;;
4835;SDS011;66719;51.226;6.902;2023-11-19T09:59:36;36.70;;;6.53;;
4835;SDS011;66719;51.226;6.902;2023-11-19T10:02:05;42.80;;;7.30;;
4835;SDS011;66719;51.226;6.902;2023-11-19T10:04:35;44.93;;;7.40;;
4835;SDS011;66719;51.226;6.902;2023-11-19T10:07:03;33.53;;;5.60;;
4835;SDS011;66719;51.226;6.902;2023-11-19T10:09:30;36.80;;;5.40;;
4835;SDS011;66719;51.226;6.902;2023-11-19T10:11:56;35.87;;;5.87;;
4835;SDS011;66719;51.226;6.902;2023-11-19T10:14:23;45.20;;;6.20;;
4835;SDS011;66719;51.226;6.902;2023-11-19T10:16:50;37.83;;;6.73;;
4835;SDS011;66719;51.226;6.902;2023-11-19T10:19:20;29.33;;;6.07;;
4835;SDS011;66719;51.226;6.902;2023-11-19T10:21:47;36.27;;;5.83;;
4835;SDS011;66719;51.226;6.902;2023-11-19T10:24:14;38.43;;;7.43;;
4835;SDS011;66719;51.226;6.902;2023-11-19T10:26:56;32.10;;;7.00;;
4835;SDS011;66719;51.226;6.902;2023-11-19T10:29:23;29.93;;;7.07;;
4835;SDS011;66719;51.226;6.902;2023-11-19T10:31:56;34.73;;;5.40;;
4835;SDS011;66719;51.226;6.902;2023-11-19T10:34:44;35.63;;;6.00;;
4835;SDS011;66719;51.226;6.902;2023-11-19T10:37:29;28.90;;;4.90;;
4835;SDS011;66719;51.226;6.902;2023-11-19T10:39:59;33.77;;;5.53;;
4835;SDS011;66719;51.226;6.902;2023-11-19T10:42:26;35.37;;;7.40;;
4835;SDS011;66719;51.226;6.902;2023-11-19T10:44:52;35.67;;;5.60;;
4835;SDS011;66719;51.226;6.902;2023-11-19T10:47:19;45.93;;;6.50;;
4835;SDS011;66719;51.226;6.902;2023-11-19T10:50:03;30.40;;;5.90;;
4835;SDS011;66719;51.226;6.902;2023-11-19T10:52:32;37.97;;;6.60;;
4835;SDS011;66719;51.226;6.902;2023-11-19T10:55:00;35.33;;;5.80;;
4835;SDS011;66719;51.226;6.902;2023-11-19T10:57:28;31.40;;;4.87;;
4835;SDS011;66719;51.226;6.902;2023-11-19T10:59:59;33.60;;;7.57;;
4835;SDS011;66719;51.226;6.902;2023-11-19T11:02:28;27.40;;;5.97;;
4835;SDS011;66719;51.226;6.902;2023-11-19T11:05:01;31.00;;;5.17;;
4835;SDS011;66719;51.226;6.902;2023-11-19T11:07:29;28.30;;;5.17;;
4835;SDS011;66719;51.226;6.902;2023-11-19T11:10:06;29.00;;;5.50;;
4835;SDS011;66719;51.226;6.902;2023-11-19T11:12:36;28.87;;;5.63;;
4835;SDS011;66719;51.226;6.902;2023-11-19T11:15:04;29.20;;;5.20;;
4835;SDS011;66719;51.226;6.902;2023-11-19T11:17:32;33.03;;;5.60;;
4835;SDS011;66719;51.226;6.902;2023-11-19T11:20:00;32.53;;;4.80;;
4835;SDS011;66719;51.226;6.902;2023-11-19T11:22:28;27.33;;;4.93;;
4835;SDS011;66719;51.226;6.902;2023-11-19T11:25:19;27.63;;;5.10;;
4835;SDS011;66719;51.226;6.902;2023-11-19T11:28:00;25.20;;;5.70;;
4835;SDS011;66719;51.226;6.902;2023-11-19T11:30:52;36.67;;;4.93;;
4835;SDS011;66719;51.226;6.902;2023-11-19T11:36:20;26.03;;;4.70;;
4835;SDS011;66719;51.226;6.902;2023-11-19T11:38:49;28.90;;;4.67;;
4835;SDS011;66719;51.226;6.902;2023-11-19T11:41:20;31.50;;;5.17;;
4835;SDS011;66719;51.226;6.902;2023-11-19T11:43:54;27.67;;;4.83;;
4835;SDS011;66719;51.226;6.902;2023-11-19T11:49:03;21.30;;;4.37;;
4835;SDS011;66719;51.226;6.902;2023-11-19T11:59:46;24.00;;;4.93;;
4835;SDS011;66719;51.226;6.902;2023-11-19T12:02:19;30.10;;;5.00;;
4835;SDS011;66719;51.226;6.902;2023-11-19T12:04:51;34.83;;;5.90;;
4835;SDS011;66719;51.226;6.902;2023-11-19T12:07:23;30.40;;;6.80;;
4835;SDS011;66719;51.226;6.902;2023-11-19T12:10:04;29.10;;;5.40;;
4835;SDS011;66719;51.226;6.902;2023-11-19T12:12:34;26.93;;;4.50;;
4835;SDS011;66719;51.226;6.902;2023-11-19T12:15:02;32.70;;;5.30;;
4835;SDS011;66719;51.226;6.902;2023-11-19T12:17:36;32.73;;;6.10;;
4835;SDS011;66719;51.226;6.902;2023-11-19T12:22:59;22.53;;;4.10;;
4835;SDS011;66719;51.226;6.902;2023-11-19T12:25:33;31.53;;;8.60;;
4835;SDS011;66719;51.226;6.902;2023-11-19T12:28:00;28.27;;;7.67;;
4835;SDS011;66719;51.226;6.902;2023-11-19T12:30:31;32.03;;;4.90;;
4835;SDS011;66719;51.226;6.902;2023-11-19T12:32:57;35.03;;;4.80;;
4835;SDS011;66719;51.226;6.902;2023-11-19T12:35:24;27.30;;;5.00;;
4835;SDS011;66719;51.226;6.902;2023-11-19T12:37:51;38.53;;;4.70;;
4835;SDS011;66719;51.226;6.902;2023-11-19T12:40:24;27.77;;;4.47;;
4835;SDS011;66719;51.226;6.902;2023-11-19T12:42:52;23.67;;;4.17;;
4835;SDS011;66719;51.226;6.902;2023-11-19T12:45:20;28.23;;;4.43;;
4835;SDS011;66719;51.226;6.902;2023-11-19T12:47:48;23.90;;;4.17;;
4835;SDS011;66719;51.226;6.902;2023-11-19T12:50:16;33.50;;;5.77;;
4835;SDS011;66719;51.226;6.902;2023-11-19T12:52:55;36.43;;;5.13;;
4835;SDS011;66719;51.226;6.902;2023-11-19T12:55:24;27.17;;;4.97;;
4835;SDS011;66719;51.226;6.902;2023-11-19T12:57:56;30.93;;;4.10;;
4835;SDS011;66719;51.226;6.902;2023-11-19T13:00:25;29.13;;;4.77;;
4835;SDS011;66719;51.226;6.902;2023-11-19T13:02:53;23.37;;;4.40;;
4835;SDS011;66719;51.226;6.902;2023-11-19T13:05:26;23.87;;;3.50;;
4835;SDS011;66719;51.226;6.902;2023-11-19T13:07:58;26.93;;;4.27;;
4835;SDS011;66719;51.226;6.902;2023-11-19T13:10:25;25.43;;;5.07;;
4835;SDS011;66719;51.226;6.902;2023-11-19T13:13:00;27.77;;;4.77;;
4835;SDS011;66719;51.226;6.902;2023-11-19T13:15:32;22.17;;;4.80;;
4835;SDS011;66719;51.226;6.902;2023-11-19T13:17:59;20.60;;;4.37;;
4835;SDS011;66719;51.226;6.902;2023-11-19T13:20:26;22.97;;;4.33;;
4835;SDS011;66719;51.226;6.902;2023-11-19T13:22:54;25.57;;;4.13;;
4835;SDS011;66719;51.226;6.902;2023-11-19T13:25:24;25.80;;;4.83;;
4835;SDS011;66719;51.226;6.902;2023-11-19T13:27:51;20.13;;;3.87;;
4835;SDS011;66719;51.226;6.902;2023-11-19T13:30:20;30.10;;;4.73;;
4835;SDS011;66719;51.226;6.902;2023-11-19T13:32:53;23.60;;;4.23;;
4835;SDS011;66719;51.226;6.902;2023-11-19T13:35:22;23.17;;;4.60;;
4835;SDS011;66719;51.226;6.902;2023-11-19T13:37:49;28.20;;;4.27;;
4835;SDS011;66719;51.226;6.902;2023-11-19T13:40:15;23.73;;;4.43;;
4835;SDS011;66719;51.226;6.902;2023-11-19T13:42:42;29.17;;;4.60;;
4835;SDS011;66719;51.226;6.902;2023-11-19T13:45:14;18.77;;;3.93;;
4835;SDS011;66719;51.226;6.902;2023-11-19T13:47:44;22.20;;;4.40;;
4835;SDS011;66719;51.226;6.902;2023-11-19T13:50:12;32.47;;;5.30;;
4835;SDS011;66719;51.226;6.902;2023-11-19T13:52:41;28.77;;;5.40;;
4835;SDS011;66719;51.226;6.902;2023-11-19T13:55:09;29.03;;;4.63;;
4835;SDS011;66719;51.226;6.902;2023-11-19T13:57:37;22.43;;;3.77;;
4835;SDS011;66719;51.226;6.902;2023-11-19T14:00:05;26.93;;;4.93;;
4835;SDS011;66719;51.226;6.902;2023-11-19T14:02:37;30.83;;;4.50;;
4835;SDS011;66719;51.226;6.902;2023-11-19T14:05:08;22.90;;;4.23;;
4835;SDS011;66719;51.226;6.902;2023-11-19T14:07:35;30.83;;;4.90;;
4835;SDS011;66719;51.226;6.902;2023-11-19T14:10:02;28.97;;;4.90;;
4835;SDS011;66719;51.226;6.902;2023-11-19T14:12:29;28.80;;;5.33;;
4835;SDS011;66719;51.226;6.902;2023-11-19T14:14:56;30.83;;;4.80;;
4835;SDS011;66719;51.226;6.902;2023-11-19T14:17:22;24.67;;;4.73;;
4835;SDS011;66719;51.226;6.902;2023-11-19T14:19:49;27.83;;;4.00;;
4835;SDS011;66719;51.226;6.902;2023-11-19T14:22:15;28.67;;;5.10;;
4835;SDS011;66719;51.226;6.902;2023-11-19T14:24:42;20.83;;;3.73;;
4835;SDS011;66719;51.226;6.902;2023-11-19T14:27:09;29.13;;;4.60;;
4835;SDS011;66719;51.226;6.902;2023-11-19T14:29:36;24.00;;;4.70;;
4835;SDS011;66719;51.226;6.902;2023-11-19T14:32:03;35.80;;;6.20;;
4835;SDS011;66719;51.226;6.902;2023-11-19T14:34:30;30.77;;;6.57;;
4835;SDS011;66719;51.226;6.902;2023-11-19T14:36:58;27.20;;;5.10;;
4835;SDS011;66719;51.226;6.902;2023-11-19T14:39:26;20.67;;;3.53;;
4835;SDS011;66719;51.226;6.902;2023-11-19T14:41:53;26.17;;;4.70;;
4835;SDS011;66719;51.226;6.902;2023-11-19T14:44:24;23.00;;;4.90;;
4835;SDS011;66719;51.226;6.902;2023-11-19T14:46:50;27.77;;;4.70;;
4835;SDS011;66719;51.226;6.902;2023-11-19T14:49:17;22.07;;;4.43;;
4835;SDS011;66719;51.226;6.902;2023-11-19T14:51:44;27.33;;;5.00;;
4835;SDS011;66719;51.226;6.902;2023-11-19T14:54:14;24.20;;;4.67;;
4835;SDS011;66719;51.226;6.902;2023-11-19T14:56:42;33.30;;;6.20;;
4835;SDS011;66719;51.226;6.902;2023-11-19T14:59:08;22.60;;;4.40;;
4835;SDS011;66719;51.226;6.902;2023-11-19T15:01:35;32.43;;;5.70;;
4835;SDS011;66719;51.226;6.902;2023-11-19T15:04:02;23.10;;;5.10;;
4835;SDS011;66719;51.226;6.902;2023-11-19T15:06:31;28.17;;;4.03;;
4835;SDS011;66719;51.226;6.902;2023-11-19T15:09:00;32.93;;;4.60;;
4835;SDS011;66719;51.226;6.902;2023-11-19T15:11:27;24.43;;;4.63;;
4835;SDS011;66719;51.226;6.902;2023-11-19T15:13:53;22.77;;;4.07;;
4835;SDS011;66719;51.226;6.902;2023-11-19T15:16:20;29.17;;;5.20;;